createdAt,value
2019-06-10T00:03:35.817Z,18.00
2019-06-10T00:08:41.361Z,18.00
2019-06-10T00:13:46.903Z,18.00
2019-06-10T00:18:52.351Z,18.00
2019-06-10T00:23:57.911Z,18.00
2019-06-10T00:29:05.756Z,17.90
2019-06-10T00:34:12.421Z,17.90
2019-06-10T00:39:17.745Z,17.90
2019-06-10T00:44:23.190Z,17.80
2019-06-10T00:49:28.666Z,17.90
2019-06-10T00:54:34.137Z,17.90
2019-06-10T00:59:41.379Z,17.90
2019-06-10T01:04:47.182Z,17.90
2019-06-10T01:09:52.705Z,17.90
2019-06-10T01:14:58.129Z,17.90
2019-06-10T01:20:03.768Z,17.90
2019-06-10T01:25:09.985Z,17.90
2019-06-10T01:30:20.560Z,17.90
2019-06-10T01:35:23.656Z,17.90
2019-06-10T01:40:31.321Z,17.90
2019-06-10T01:45:36.321Z,17.80
2019-06-10T01:50:41.822Z,17.70
2019-06-10T01:55:47.393Z,17.70
2019-06-10T02:01:02.787Z,17.60
2019-06-10T02:06:08.789Z,17.50
2019-06-10T02:11:17.029Z,17.40
2019-06-10T02:16:24.063Z,17.30
2019-06-10T02:21:31.018Z,17.20
2019-06-10T02:26:36.010Z,17.10
2019-06-10T02:31:43.255Z,17.00
2019-06-10T02:36:48.620Z,17.00
2019-06-10T02:41:55.717Z,17.00
2019-06-10T02:47:03.389Z,17.10
2019-06-10T02:52:24.625Z,17.20
2019-06-10T02:57:34.808Z,17.20
2019-06-10T03:02:36.406Z,17.20
2019-06-10T03:07:44.449Z,17.20
2019-06-10T03:12:49.352Z,17.20
2019-06-10T03:17:54.829Z,17.20
2019-06-10T03:23:00.272Z,17.20
2019-06-10T03:28:05.732Z,17.10
2019-06-10T03:33:13.771Z,17.10
2019-06-10T03:38:18.363Z,17.10
2019-06-10T03:43:26.324Z,17.10
2019-06-10T03:48:32.804Z,17.10
2019-06-10T03:53:38.299Z,17.10
2019-06-10T03:58:43.768Z,17.10
2019-06-10T04:03:49.278Z,17.10
2019-06-10T04:08:54.729Z,17.10
2019-06-10T04:14:02.382Z,17.00
2019-06-10T04:19:07.596Z,17.10
2019-06-10T04:24:13.129Z,17.10
2019-06-10T04:29:19.878Z,17.20
2019-06-10T04:34:28.972Z,17.20
2019-06-10T04:39:33.792Z,17.40
2019-06-10T04:44:39.333Z,17.50
2019-06-10T04:49:44.895Z,17.60
2019-06-10T04:54:52.614Z,17.80
2019-06-10T04:59:57.533Z,18.00
2019-06-10T05:05:03.217Z,18.20
2019-06-10T05:10:08.777Z,18.50
2019-06-10T05:15:14.278Z,18.70
2019-06-10T05:20:19.912Z,18.70
2019-06-10T05:25:25.721Z,18.70
2019-06-10T05:30:34.083Z,18.80
2019-06-10T05:35:39.471Z,18.90
2019-06-10T05:40:44.940Z,19.10
2019-06-10T05:45:52.878Z,19.60
2019-06-10T05:51:02.927Z,20.30
2019-06-10T05:56:06.786Z,21.80
2019-06-10T06:01:13.250Z,24.10
2019-06-10T06:06:19.118Z,27.70
2019-06-10T06:11:25.244Z,28.10
2019-06-10T06:16:33.115Z,27.50
2019-06-10T06:21:42.715Z,26.90
2019-06-10T06:26:45.726Z,26.30
2019-06-10T06:31:52.395Z,26.00
2019-06-10T06:36:57.992Z,26.00
2019-06-10T06:42:03.680Z,26.10
2019-06-10T06:47:09.393Z,26.50
2019-06-10T06:52:15.240Z,29.10
2019-06-10T06:57:22.338Z,31.00
2019-06-10T07:02:29.517Z,31.10
2019-06-10T07:07:36.025Z,30.40
2019-06-10T07:12:43.879Z,29.90
2019-06-10T07:17:49.869Z,30.40
2019-06-10T07:22:55.587Z,33.30
2019-06-10T07:28:02.053Z,34.00
2019-06-10T07:33:07.894Z,34.30
2019-06-10T07:38:13.687Z,35.90
2019-06-10T07:43:19.475Z,35.00
2019-06-10T07:48:25.618Z,33.20
2019-06-10T07:53:33.148Z,31.60
2019-06-10T07:58:40.135Z,30.90
2019-06-10T08:03:46.660Z,30.20
2019-06-10T08:08:53.399Z,30.70
2019-06-10T08:13:59.372Z,31.10
2019-06-10T08:19:31.628Z,30.70
2019-06-10T08:24:12.824Z,30.40
2019-06-10T08:29:18.541Z,34.30
2019-06-10T08:34:24.268Z,38.90
2019-06-10T08:39:30.016Z,42.40
2019-06-10T08:44:36.654Z,45.90
2019-06-10T08:49:45.499Z,48.50
2019-06-10T08:54:54.071Z,50.50
2019-06-10T08:59:57.475Z,51.90
2019-06-10T09:05:03.765Z,51.20
2019-06-10T09:10:09.681Z,50.50
2019-06-10T09:15:15.848Z,49.80
2019-06-10T09:20:23.017Z,49.80
2019-06-10T09:25:28.867Z,51.90
2019-06-10T09:30:34.646Z,52.80
2019-06-10T09:35:42.568Z,53.20
2019-06-10T09:40:59.211Z,53.50
2019-06-10T09:45:59.573Z,53.30
2019-06-10T09:51:05.417Z,52.50
2019-06-10T09:56:12.486Z,50.20
2019-06-10T10:01:18.432Z,46.50
2019-06-10T10:06:24.530Z,43.40
2019-06-10T10:11:32.121Z,40.90
2019-06-10T10:16:38.101Z,38.70
2019-06-10T10:21:46.930Z,37.20
2019-06-10T10:26:57.127Z,36.00
2019-06-10T10:31:58.848Z,34.20
2019-06-10T10:37:04.605Z,32.60
2019-06-10T10:42:12.508Z,31.20
2019-06-10T10:47:17.931Z,30.30
2019-06-10T10:52:23.870Z,30.10
2019-06-10T10:57:29.628Z,30.20
2019-06-10T11:02:35.359Z,30.50
2019-06-10T11:07:42.284Z,30.70
2019-06-10T11:12:49.098Z,31.20
2019-06-10T11:17:56.379Z,31.40
2019-06-10T11:23:02.909Z,31.50
2019-06-10T11:28:09.175Z,31.60
2019-06-10T11:33:15.887Z,31.70
2019-06-10T11:38:23.452Z,31.70
2019-06-10T11:43:29.263Z,31.40
2019-06-10T11:48:34.970Z,31.00
2019-06-10T11:53:40.812Z,30.90
2019-06-10T11:58:46.525Z,30.10
2019-06-10T12:03:55.864Z,29.70
2019-06-10T12:09:02.994Z,29.40
2019-06-10T12:14:09.139Z,29.30
2019-06-10T12:19:14.902Z,29.90
2019-06-10T12:24:23.079Z,30.30
2019-06-10T12:29:28.204Z,30.40
2019-06-10T12:34:34.007Z,30.40
2019-06-10T12:39:42.120Z,30.40
2019-06-10T12:44:47.394Z,30.10
2019-06-10T12:49:54.714Z,29.80
2019-06-10T12:55:02.295Z,29.60
2019-06-10T13:00:19.652Z,29.50
2019-06-10T13:05:15.860Z,29.50
2019-06-10T13:10:38.628Z,29.60
2019-06-10T13:15:44.402Z,29.70
2019-06-10T13:20:50.271Z,29.90
2019-06-10T13:26:00.352Z,29.90
2019-06-10T13:31:05.920Z,29.90
2019-06-10T13:36:11.427Z,29.70
2019-06-10T13:41:17.247Z,29.50
2019-06-10T13:46:24.769Z,29.40
2019-06-10T13:51:32.375Z,29.30
2019-06-10T13:56:46.586Z,29.40
2019-06-10T14:01:45.492Z,29.50
2019-06-10T14:06:56.761Z,29.70
2019-06-10T14:11:58.762Z,29.70
2019-06-10T14:17:05.616Z,29.80
2019-06-10T14:22:15.722Z,29.50
2019-06-10T14:27:21.463Z,29.20
2019-06-10T14:32:26.456Z,29.30
2019-06-10T14:37:38.906Z,29.30
2019-06-10T14:42:40.249Z,29.30
2019-06-10T14:47:46.018Z,29.30
2019-06-10T14:52:51.808Z,29.10
2019-06-10T14:57:57.768Z,28.80
2019-06-10T15:03:05.670Z,28.70
2019-06-10T15:08:13.668Z,28.70
2019-06-10T15:13:18.559Z,28.50
2019-06-10T15:18:24.449Z,28.40
2019-06-10T15:23:32.481Z,28.40
2019-06-10T15:28:37.784Z,28.40
2019-06-10T15:33:43.551Z,28.40
2019-06-10T15:38:49.332Z,28.20
2019-06-10T15:43:55.077Z,28.30
2019-06-10T15:49:02.338Z,28.40
2019-06-10T15:54:08.305Z,28.40
2019-06-10T15:59:16.382Z,28.30
2019-06-10T16:04:25.795Z,28.10
2019-06-10T16:09:32.015Z,27.90
2019-06-10T16:14:37.272Z,27.70
2019-06-10T16:19:43.216Z,27.60
2019-06-10T16:24:49.088Z,27.60
2019-06-10T16:29:54.977Z,27.80
2019-06-10T16:35:00.716Z,27.90
2019-06-10T16:40:06.648Z,28.00
2019-06-10T16:45:12.957Z,28.30
2019-06-10T16:50:22.767Z,28.50
2019-06-10T16:55:27.876Z,28.50
2019-06-10T17:00:34.779Z,28.40
2019-06-10T17:05:42.591Z,28.10
2019-06-10T17:10:48.646Z,27.90
2019-06-10T17:15:54.370Z,27.50
2019-06-10T17:21:02.678Z,27.30
2019-06-10T17:26:07.722Z,27.00
2019-06-10T17:31:13.556Z,26.70
2019-06-10T17:36:20.171Z,26.50
2019-06-10T17:41:28.988Z,26.30
2019-06-10T17:46:35.277Z,26.20
2019-06-10T17:51:40.408Z,26.00
2019-06-10T17:56:45.913Z,25.70
2019-06-10T18:01:52.416Z,25.40
2019-06-10T18:06:58.040Z,25.00
2019-06-10T18:12:03.632Z,24.60
2019-06-10T18:17:09.069Z,24.20
2019-06-10T18:22:14.540Z,23.80
2019-06-10T18:27:22.019Z,23.40
2019-06-10T18:32:27.450Z,23.20
2019-06-10T18:37:34.854Z,23.00
2019-06-10T18:42:40.129Z,22.80
2019-06-10T18:47:45.591Z,22.60
2019-06-10T18:52:53.888Z,22.40
2019-06-10T18:57:58.331Z,22.30
2019-06-10T19:03:12.714Z,22.10
2019-06-10T19:08:10.953Z,21.90
2019-06-10T19:13:16.441Z,21.70
2019-06-10T19:18:23.181Z,21.40
2019-06-10T19:23:30.166Z,21.20
2019-06-10T19:28:38.759Z,21.00
2019-06-10T19:33:45.253Z,20.80
2019-06-10T19:38:50.510Z,20.60
2019-06-10T19:43:56.013Z,20.40
2019-06-10T19:49:04.124Z,20.30
2019-06-10T19:54:08.862Z,20.10
2019-06-10T19:59:14.336Z,19.90
2019-06-10T20:04:19.769Z,19.70
2019-06-10T20:09:25.277Z,19.60
2019-06-10T20:14:32.252Z,19.40
2019-06-10T20:19:37.892Z,19.30
2019-06-10T20:24:45.373Z,19.20
2019-06-10T20:30:04.677Z,19.20
2019-06-10T20:34:58.008Z,19.10
2019-06-10T20:40:03.855Z,19.20
2019-06-10T20:45:09.492Z,19.10
2019-06-10T20:50:14.936Z,19.10
2019-06-10T20:55:23.175Z,19.10
2019-06-10T21:00:40.608Z,19.00
2019-06-10T21:05:50.118Z,19.00
2019-06-10T21:10:55.735Z,18.90
2019-06-10T21:16:03.781Z,18.80
2019-06-10T21:21:08.696Z,18.80
2019-06-10T21:26:14.964Z,18.80
2019-06-10T21:31:20.765Z,18.80
2019-06-10T21:36:27.168Z,18.70
2019-06-10T21:41:34.411Z,18.60
2019-06-10T21:46:40.362Z,18.40
2019-06-10T21:51:48.950Z,18.30
2019-06-10T21:56:55.452Z,18.30
2019-06-10T22:02:02.316Z,18.30
2019-06-10T22:07:07.947Z,18.30
2019-06-10T22:12:13.479Z,18.20
2019-06-10T22:17:18.937Z,18.20
2019-06-10T22:22:27.427Z,18.20
2019-06-10T22:27:32.984Z,18.20
2019-06-10T22:32:38.505Z,18.20
2019-06-10T22:37:45.620Z,18.20
2019-06-10T22:42:53.624Z,18.20
2019-06-10T22:47:58.447Z,18.20
2019-06-10T22:53:04.169Z,18.20
2019-06-10T22:58:10.103Z,18.20
2019-06-10T23:03:15.755Z,18.20
2019-06-10T23:08:23.051Z,18.20
2019-06-10T23:13:28.630Z,18.20
2019-06-10T23:18:34.227Z,18.20
2019-06-10T23:23:39.816Z,18.20
2019-06-10T23:28:45.325Z,18.20
2019-06-10T23:33:53.476Z,18.20
2019-06-10T23:38:58.902Z,18.20
2019-06-10T23:44:04.642Z,18.20
2019-06-10T23:49:12.234Z,18.20
2019-06-10T23:54:17.298Z,18.20
2019-06-10T23:59:23.030Z,18.10
